Time,TemperatureF,DewpointF,PressureIn,WindDirection,WindDirectionDegrees,WindSpeedMPH,WindSpeedGustMPH,Humidity,HourlyPrecipIn,Conditions,Clouds,dailyrainin,SoftwareType,DateUTC
2013-07-31 00:01:00,74.2,72.7,30.14,East,98,0.0,0.0,95,0.00,CLR,,0.00,WeatherDisplay:10.37,2013-07-31 04:01:00,
2013-07-31 00:02:00,74.2,72.7,30.14,East,98,0.0,0.0,95,0.00,CLR,,0.00,WeatherDisplay:10.37,2013-07-31 04:02:00,
2013-07-31 00:03:00,74.2,72.7,30.14,East,98,0.0,0.0,95,0.00,CLR,,0.00,WeatherDisplay:10.37,2013-07-31 04:03:00,
2013-07-31 00:08:00,74.1,72.6,30.14,East,98,0.0,0.0,95,0.00,CLR,,0.00,WeatherDisplay:10.37,2013-07-31 04:08:00,
2013-07-31 00:13:00,74.1,72.6,30.14,East,98,0.0,0.0,95,0.00,CLR,,0.00,WeatherDisplay:10.37,2013-07-31 04:13:00,
2013-07-31 00:18:00,74.0,72.5,30.14,East,98,0.0,0.0,95,0.00,CLR,,0.00,WeatherDisplay:10.37,2013-07-31 04:18:00,
2013-07-31 00:23:00,74.0,72.5,30.14,East,98,0.0,0.0,95,0.00,CLR,,0.00,WeatherDisplay:10.37,2013-07-31 04:23:00,
2013-07-31 00:28:00,73.9,72.4,30.14,East,98,0.0,0.0,95,0.00,CLR,,0.00,WeatherDisplay:10.37,2013-07-31 04:28:00,
2013-07-31 00:33:00,73.8,72.3,30.14,East,98,0.0,0.0,95,0.00,CLR,,0.00,WeatherDisplay:10.37,2013-07-31 04:33:00,
2013-07-31 00:38:00,73.8,72.6,30.14,East,98,0.0,0.0,96,0.00,CLR,,0.00,WeatherDisplay:10.37,2013-07-31 04:38:00,
2013-07-31 00:43:00,73.7,72.5,30.14,East,98,0.1,0.0,96,0.00,CLR,,0.00,WeatherDisplay:10.37,2013-07-31 04:43:00,
2013-07-31 00:48:00,73.7,72.5,30.14,East,98,0.0,0.0,96,0.00,CLR,,0.00,WeatherDisplay:10.37,2013-07-31 04:48:00,
2013-07-31 00:54:00,73.5,72.0,30.14,East,98,0.0,0.0,95,0.00,CLR,,0.00,WeatherDisplay:10.37,2013-07-31 04:54:00,
2013-07-31 00:59:00,73.3,71.8,30.14,East,98,0.0,0.0,95,0.00,CLR,,0.00,WeatherDisplay:10.37,2013-07-31 04:59:00,
2013-07-31 01:04:00,73.1,71.9,30.14,East,98,0.0,0.0,96,0.00,CLR,,0.00,WeatherDisplay:10.37,2013-07-31 05:04:00,
2013-07-31 01:09:00,73.1,71.9,30.14,East,98,0.0,0.0,96,0.00,CLR,,0.00,WeatherDisplay:10.37,2013-07-31 05:09:00,
2013-07-31 01:14:00,73.0,71.8,30.13,East,98,0.0,0.0,96,0.00,CLR,,0.00,WeatherDisplay:10.37,2013-07-31 05:14:00,
2013-07-31 01:19:00,72.9,71.7,30.13,East,98,0.0,0.0,96,0.00,CLR,,0.00,WeatherDisplay:10.37,2013-07-31 05:19:00,
2013-07-31 01:25:00,72.8,71.6,30.13,East,98,0.0,0.0,96,0.00,,,0.00,WeatherDisplay:10.37,2013-07-31 05:25:00,
2013-07-31 01:30:00,72.8,71.6,30.13,East,98,0.0,0.0,96,0.00,,,0.00,WeatherDisplay:10.37,2013-07-31 05:30:00,
2013-07-31 01:35:00,72.7,71.5,30.13,East,98,0.0,0.0,96,0.00,,,0.00,WeatherDisplay:10.37,2013-07-31 05:35:00,
2013-07-31 01:40:00,72.7,71.5,30.13,East,98,0.0,0.0,96,0.00,CLR,,0.00,WeatherDisplay:10.37,2013-07-31 05:40:00,
2013-07-31 01:45:00,72.7,71.4,30.13,East,98,0.0,0.0,96,0.00,,,0.00,WeatherDisplay:10.37,2013-07-31 05:45:00,
2013-07-31 01:50:00,72.6,71.4,30.13,East,98,1.0,2.0,96,0.00,,,0.00,WeatherDisplay:10.37,2013-07-31 05:50:00,
2013-07-31 01:55:00,72.6,71.7,30.13,East,98,0.0,0.0,97,0.00,,,0.00,WeatherDisplay:10.37,2013-07-31 05:55:00,
2013-07-31 02:00:00,72.5,71.6,30.13,East,98,0.0,1.0,97,0.00,,,0.00,WeatherDisplay:10.37,2013-07-31 06:00:00,
2013-07-31 02:05:00,72.4,71.5,30.13,East,98,0.3,1.1,97,0.00,CLR,,0.00,WeatherDisplay:10.37,2013-07-31 06:05:00,
2013-07-31 02:10:00,72.3,71.1,30.13,East,98,0.0,3.0,96,0.00,,,0.00,WeatherDisplay:10.37,2013-07-31 06:10:00,
2013-07-31 02:15:00,72.2,71.3,30.13,East,98,0.0,0.0,97,0.00,CLR,,0.00,WeatherDisplay:10.37,2013-07-31 06:15:00,
2013-07-31 02:20:00,72.3,71.4,30.13,East,98,0.0,0.0,97,0.00,CLR,,0.00,WeatherDisplay:10.37,2013-07-31 06:20:00,
2013-07-31 02:25:00,72.2,71.3,30.12,East,98,0.0,0.0,97,0.00,CLR,,0.00,WeatherDisplay:10.37,2013-07-31 06:25:00,
2013-07-31 02:30:00,72.2,71.3,30.12,East,98,0.0,0.0,97,0.00,CLR,,0.00,WeatherDisplay:10.37,2013-07-31 06:30:00,
2013-07-31 02:35:00,72.2,71.3,30.12,East,98,0.0,0.0,97,0.00,CLR,,0.00,WeatherDisplay:10.37,2013-07-31 06:35:00,
2013-07-31 02:40:00,72.2,71.3,30.12,East,98,0.0,0.0,97,0.00,CLR,,0.00,WeatherDisplay:10.37,2013-07-31 06:40:00,
2013-07-31 02:46:00,72.2,71.3,30.12,East,98,0.0,0.0,97,0.00,CLR,,0.00,WeatherDisplay:10.37,2013-07-31 06:46:00,
2013-07-31 02:51:00,72.1,71.2,30.12,East,98,0.0,0.0,97,0.00,CLR,,0.00,WeatherDisplay:10.37,2013-07-31 06:51:00,
2013-07-31 02:56:00,72.1,71.2,30.12,East,98,0.0,0.0,97,0.00,CLR,,0.00,WeatherDisplay:10.37,2013-07-31 06:56:00,
2013-07-31 03:01:00,72.1,71.2,30.12,East,98,0.0,0.0,97,0.00,CLR,,0.00,WeatherDisplay:10.37,2013-07-31 07:01:00,
2013-07-31 03:06:00,72.1,71.2,30.12,East,98,0.0,0.0,97,0.00,CLR,,0.00,WeatherDisplay:10.37,2013-07-31 07:06:00,
2013-07-31 03:11:00,72.2,71.3,30.12,East,98,0.0,0.0,97,0.00,CLR,,0.00,WeatherDisplay:10.37,2013-07-31 07:11:00,
2013-07-31 03:16:00,72.2,71.3,30.12,East,98,0.0,0.0,97,0.00,CLR,,0.00,WeatherDisplay:10.37,2013-07-31 07:16:00,
2013-07-31 03:22:00,72.2,71.3,30.11,East,98,0.0,0.0,97,0.00,CLR,,0.00,WeatherDisplay:10.37,2013-07-31 07:22:00,
2013-07-31 03:27:00,72.2,71.3,30.11,East,98,0.0,0.0,97,0.00,CLR,,0.00,WeatherDisplay:10.37,2013-07-31 07:27:00,
2013-07-31 03:32:00,72.2,71.3,30.11,East,98,0.0,0.0,97,0.00,CLR,,0.00,WeatherDisplay:10.37,2013-07-31 07:32:00,
2013-07-31 03:37:00,72.2,71.3,30.11,East,98,0.0,0.0,97,0.00,CLR,,0.00,WeatherDisplay:10.37,2013-07-31 07:37:00,
2013-07-31 03:42:00,72.3,71.4,30.11,East,98,0.0,1.1,97,0.00,CLR,,0.00,WeatherDisplay:10.37,2013-07-31 07:42:00,
2013-07-31 03:48:00,72.3,71.4,30.11,East,98,0.0,0.0,97,0.00,CLR,,0.00,WeatherDisplay:10.37,2013-07-31 07:48:00,
2013-07-31 03:53:00,72.4,71.8,30.11,East,98,0.0,0.0,98,0.00,CLR,,0.00,WeatherDisplay:10.37,2013-07-31 07:53:00,
2013-07-31 03:58:00,72.3,71.4,30.11,East,98,0.0,0.0,97,0.00,CLR,,0.00,WeatherDisplay:10.37,2013-07-31 07:58:00,
2013-07-31 04:03:00,72.2,71.3,30.11,East,98,0.0,0.0,97,0.00,CLR,,0.00,WeatherDisplay:10.37,2013-07-31 08:03:00,
2013-07-31 04:08:00,72.2,71.3,30.11,East,98,0.2,0.0,97,0.00,CLR,,0.00,WeatherDisplay:10.37,2013-07-31 08:08:00,
2013-07-31 04:13:00,72.2,71.3,30.11,East,98,0.0,1.1,97,0.00,CLR,,0.00,WeatherDisplay:10.37,2013-07-31 08:13:00,
2013-07-31 04:19:00,72.2,71.6,30.11,East,98,0.0,0.0,98,0.00,CLR,,0.00,WeatherDisplay:10.37,2013-07-31 08:19:00,
2013-07-31 04:24:00,72.3,71.7,30.11,East,98,0.0,0.0,98,0.00,CLR,,0.00,WeatherDisplay:10.37,2013-07-31 08:24:00,
2013-07-31 04:29:00,72.4,71.8,30.11,East,98,0.0,1.1,98,0.00,CLR,,0.00,WeatherDisplay:10.37,2013-07-31 08:29:00,
2013-07-31 04:35:00,72.4,71.8,30.11,East,96,0.0,1.1,98,0.00,CLR,,0.00,WeatherDisplay:10.37,2013-07-31 08:35:00,
2013-07-31 04:40:00,72.4,71.8,30.11,East,94,0.0,3.0,98,0.00,,,0.00,WeatherDisplay:10.37,2013-07-31 08:40:00,
2013-07-31 04:45:00,72.4,71.8,30.11,East,86,0.0,1.0,98,0.00,,,0.00,WeatherDisplay:10.37,2013-07-31 08:45:00,
2013-07-31 04:50:00,72.3,71.7,30.11,East,82,0.0,1.0,98,0.00,,,0.00,WeatherDisplay:10.37,2013-07-31 08:50:00,
2013-07-31 04:55:00,72.3,71.7,30.11,East,82,0.0,1.0,98,0.00,,,0.00,WeatherDisplay:10.37,2013-07-31 08:55:00,
2013-07-31 05:00:00,72.3,71.7,30.11,East,82,0.0,1.0,98,0.00,,,0.00,WeatherDisplay:10.37,2013-07-31 09:00:00,
2013-07-31 05:05:00,72.3,71.7,30.11,East,82,0.0,1.0,98,0.00,,,0.00,WeatherDisplay:10.37,2013-07-31 09:05:00,
2013-07-31 05:10:00,72.2,71.6,30.11,East,82,0.0,1.0,98,0.00,,,0.00,WeatherDisplay:10.37,2013-07-31 09:10:00,
2013-07-31 05:15:00,72.2,71.6,30.11,East,82,0.0,1.0,98,0.00,,,0.00,WeatherDisplay:10.37,2013-07-31 09:15:00,
2013-07-31 05:20:00,72.2,71.6,30.12,East,82,0.0,1.0,98,0.00,,,0.00,WeatherDisplay:10.37,2013-07-31 09:20:00,
2013-07-31 05:25:00,72.2,71.6,30.12,East,82,0.0,1.0,98,0.00,,,0.00,WeatherDisplay:10.37,2013-07-31 09:25:00,
2013-07-31 05:30:00,72.1,71.5,30.12,East,82,0.5,2.3,98,0.00,CLR,,0.00,WeatherDisplay:10.37,2013-07-31 09:30:00,
2013-07-31 05:35:00,72.3,71.7,30.12,East,82,0.0,1.1,98,0.00,CLR,,0.00,WeatherDisplay:10.37,2013-07-31 09:35:00,
2013-07-31 05:40:00,72.3,71.7,30.12,East,82,0.0,0.0,98,0.00,CLR,,0.00,WeatherDisplay:10.37,2013-07-31 09:40:00,
2013-07-31 05:45:00,72.3,71.7,30.12,East,82,0.0,0.0,98,0.00,CLR,,0.00,WeatherDisplay:10.37,2013-07-31 09:45:00,
2013-07-31 05:50:00,72.3,71.7,30.12,East,82,0.0,1.1,98,0.00,CLR,,0.00,WeatherDisplay:10.37,2013-07-31 09:50:00,
2013-07-31 05:56:00,72.3,71.7,30.12,East,82,0.1,1.1,98,0.00,CLR,,0.00,WeatherDisplay:10.37,2013-07-31 09:56:00,
2013-07-31 06:01:00,72.3,71.7,30.12,East,82,0.1,1.1,98,0.00,CLR,,0.00,WeatherDisplay:10.37,2013-07-31 10:01:00,
2013-07-31 06:06:00,72.4,71.8,30.12,East,82,0.0,1.1,98,0.00,CLR,,0.00,WeatherDisplay:10.37,2013-07-31 10:06:00,
2013-07-31 06:11:00,72.3,71.7,30.12,East,82,0.1,0.0,98,0.00,CLR,,0.00,WeatherDisplay:10.37,2013-07-31 10:11:00,
2013-07-31 06:17:00,72.4,71.8,30.12,East,82,0.0,1.1,98,0.00,CLR,,0.00,WeatherDisplay:10.37,2013-07-31 10:17:00,
2013-07-31 06:22:00,72.3,71.7,30.12,East,82,0.0,0.0,98,0.00,CLR,,0.00,WeatherDisplay:10.37,2013-07-31 10:22:00,
2013-07-31 06:27:00,72.4,71.8,30.12,East,82,0.1,1.1,98,0.00,CLR,,0.00,WeatherDisplay:10.37,2013-07-31 10:27:00,
2013-07-31 06:32:00,72.4,71.8,30.12,East,82,0.2,2.0,98,0.00,CLR,,0.00,WeatherDisplay:10.37,2013-07-31 10:32:00,
2013-07-31 06:38:00,72.4,71.8,30.12,East,82,0.0,0.0,98,0.00,CLR,,0.00,WeatherDisplay:10.37,2013-07-31 10:38:00,
2013-07-31 06:43:00,72.4,71.8,30.12,East,82,0.0,1.1,98,0.00,CLR,,0.00,WeatherDisplay:10.37,2013-07-31 10:43:00,
2013-07-31 06:48:00,72.5,71.9,30.12,East,82,0.0,0.0,98,0.00,CLR,,0.00,WeatherDisplay:10.37,2013-07-31 10:48:00,
2013-07-31 06:53:00,72.5,71.9,30.12,East,82,0.0,0.0,98,0.00,CLR,,0.00,WeatherDisplay:10.37,2013-07-31 10:53:00,
2013-07-31 06:58:00,72.6,72.0,30.12,East,82,0.0,0.0,98,0.00,CLR,,0.00,WeatherDisplay:10.37,2013-07-31 10:58:00,
2013-07-31 07:03:00,72.6,72.0,30.12,East,82,0.0,0.0,98,0.00,CLR,,0.00,WeatherDisplay:10.37,2013-07-31 11:03:00,
2013-07-31 07:08:00,72.6,72.0,30.12,East,82,0.0,0.0,98,0.00,CLR,,0.00,WeatherDisplay:10.37,2013-07-31 11:08:00,
2013-07-31 07:14:00,72.6,72.0,30.12,East,82,0.4,2.3,98,0.00,CLR,,0.00,WeatherDisplay:10.37,2013-07-31 11:14:00,
2013-07-31 07:19:00,72.6,72.0,30.12,East,82,0.0,0.0,98,0.00,CLR,,0.00,WeatherDisplay:10.37,2013-07-31 11:19:00,
2013-07-31 07:24:00,72.7,72.1,30.12,East,82,0.1,1.1,98,0.00,CLR,,0.00,WeatherDisplay:10.37,2013-07-31 11:24:00,
2013-07-31 07:29:00,72.8,72.2,30.12,East,82,0.0,2.3,98,0.00,CLR,,0.00,WeatherDisplay:10.37,2013-07-31 11:29:00,
2013-07-31 07:34:00,72.8,72.2,30.12,East,82,0.0,1.1,98,0.00,CLR,,0.00,WeatherDisplay:10.37,2013-07-31 11:34:00,
2013-07-31 07:39:00,72.9,72.3,30.12,East,81,0.0,0.0,98,0.00,CLR,,0.00,WeatherDisplay:10.37,2013-07-31 11:39:00,
2013-07-31 07:45:00,73.0,72.4,30.13,East,82,0.0,1.0,98,0.00,,,0.00,WeatherDisplay:10.37,2013-07-31 11:45:00,
2013-07-31 07:50:00,73.3,72.7,30.12,East,82,0.1,1.1,98,0.00,CLR,,0.00,WeatherDisplay:10.37,2013-07-31 11:50:00,
2013-07-31 07:55:00,73.6,73.0,30.12,East,82,0.0,0.0,98,0.00,,,0.00,WeatherDisplay:10.37,2013-07-31 11:55:00,
2013-07-31 08:00:00,74.0,73.4,30.13,East,82,0.0,2.0,98,0.00,,,0.00,WeatherDisplay:10.37,2013-07-31 12:00:00,
2013-07-31 08:05:00,74.5,73.9,30.12,East,82,0.0,1.0,98,0.00,,,0.00,WeatherDisplay:10.37,2013-07-31 12:05:00,
2013-07-31 08:10:00,74.8,74.2,30.13,East,82,0.0,1.0,98,0.00,,,0.00,WeatherDisplay:10.37,2013-07-31 12:10:00,
2013-07-31 08:15:00,75.0,74.4,30.12,East,82,0.0,1.0,98,0.00,,,0.00,WeatherDisplay:10.37,2013-07-31 12:15:00,
2013-07-31 08:20:00,75.3,74.4,30.12,East,82,0.0,0.0,97,0.00,CLR,,0.00,WeatherDisplay:10.37,2013-07-31 12:20:00,
2013-07-31 08:25:00,75.5,74.6,30.13,East,82,0.0,0.0,97,0.00,,,0.00,WeatherDisplay:10.37,2013-07-31 12:25:00,
2013-07-31 08:30:00,75.8,74.9,30.13,East,82,0.0,1.1,97,0.00,CLR,,0.00,WeatherDisplay:10.37,2013-07-31 12:30:00,
2013-07-31 08:35:00,76.1,75.2,30.13,East,82,0.0,2.0,97,0.00,,,0.00,WeatherDisplay:10.37,2013-07-31 12:35:00,
2013-07-31 08:40:00,76.5,75.3,30.14,East,82,0.0,1.0,96,0.00,,,0.00,WeatherDisplay:10.37,2013-07-31 12:40:00,
2013-07-31 08:45:00,76.7,75.2,30.14,East,82,0.0,1.0,95,0.00,,,0.00,WeatherDisplay:10.37,2013-07-31 12:45:00,
2013-07-31 08:50:00,77.2,75.7,30.14,East,82,0.0,1.1,95,0.00,CLR,,0.00,WeatherDisplay:10.37,2013-07-31 12:50:00,
2013-07-31 08:55:00,77.6,76.1,30.14,East,82,0.0,0.0,95,0.00,CLR,,0.00,WeatherDisplay:10.37,2013-07-31 12:55:00,
2013-07-31 09:00:00,77.9,75.7,30.14,East,82,0.2,1.1,93,0.00,CLR,,0.00,WeatherDisplay:10.37,2013-07-31 13:00:00,
2013-07-31 09:05:00,78.4,76.2,30.14,East,86,0.1,2.3,93,0.00,CLR,,0.00,WeatherDisplay:10.37,2013-07-31 13:05:00,
2013-07-31 09:10:00,78.7,75.8,30.14,ENE,78,1.4,6.9,91,0.00,CLR,,0.00,WeatherDisplay:10.37,2013-07-31 13:10:00,
2013-07-31 09:15:00,78.9,75.0,30.14,ENE,76,0.1,1.1,88,0.00,CLR,,0.00,WeatherDisplay:10.37,2013-07-31 13:15:00,
2013-07-31 09:21:00,79.1,74.5,30.14,East,99,0.7,4.6,86,0.00,CLR,,0.00,WeatherDisplay:10.37,2013-07-31 13:21:00,
2013-07-31 09:26:00,79.4,74.8,30.14,East,99,0.8,2.3,86,0.00,CLR,,0.00,WeatherDisplay:10.37,2013-07-31 13:26:00,
2013-07-31 09:31:00,79.7,74.8,30.14,East,81,0.2,2.3,85,0.00,CLR,,0.00,WeatherDisplay:10.37,2013-07-31 13:31:00,
2013-07-31 09:36:00,79.8,74.2,30.14,NE,53,1.9,4.6,83,0.00,CLR,,0.00,WeatherDisplay:10.37,2013-07-31 13:36:00,
2013-07-31 09:42:00,80.0,74.4,30.14,ESE,118,0.0,1.1,83,0.00,CLR,,0.00,WeatherDisplay:10.37,2013-07-31 13:42:00,
2013-07-31 09:47:00,80.1,74.8,30.14,East,82,4.3,6.9,84,0.00,CLR,,0.00,WeatherDisplay:10.37,2013-07-31 13:47:00,
2013-07-31 09:52:00,80.2,74.9,30.14,ESE,108,6.1,9.2,84,0.00,CLR,,0.00,WeatherDisplay:10.37,2013-07-31 13:52:00,
2013-07-31 09:57:00,80.2,74.6,30.14,ENE,77,2.5,5.0,83,0.00,CLR,,0.00,WeatherDisplay:10.37,2013-07-31 13:57:00,
2013-07-31 10:02:00,80.2,74.2,30.14,ENE,75,0.6,6.9,82,0.00,CLR,,0.00,WeatherDisplay:10.37,2013-07-31 14:02:00,
2013-07-31 10:07:00,80.3,74.3,30.14,ENE,71,0.9,1.1,82,0.00,CLR,,0.00,WeatherDisplay:10.37,2013-07-31 14:07:00,
2013-07-31 10:13:00,80.3,73.6,30.14,East,82,1.3,4.6,80,0.00,CLR,,0.00,WeatherDisplay:10.37,2013-07-31 14:13:00,
2013-07-31 10:18:00,80.5,73.8,30.14,ENE,71,1.2,3.5,80,0.00,CLR,,0.00,WeatherDisplay:10.37,2013-07-31 14:18:00,
2013-07-31 10:23:00,80.6,73.9,30.14,SE,129,3.0,4.6,80,0.00,CLR,,0.00,WeatherDisplay:10.37,2013-07-31 14:23:00,
2013-07-31 10:28:00,80.8,73.3,30.14,ENE,62,4.5,8.1,78,0.00,CLR,,0.00,WeatherDisplay:10.37,2013-07-31 14:28:00,
2013-07-31 10:33:00,81.2,73.7,30.14,East,96,1.3,8.1,78,0.00,CLR,,0.00,WeatherDisplay:10.37,2013-07-31 14:33:00,
2013-07-31 10:39:00,81.4,71.9,30.14,ESE,111,5.8,9.2,73,0.00,CLR,,0.00,WeatherDisplay:10.37,2013-07-31 14:39:00,
2013-07-31 10:44:00,81.5,72.4,30.14,East,80,0.3,3.5,74,0.00,CLR,,0.00,WeatherDisplay:10.37,2013-07-31 14:44:00,
2013-07-31 10:49:00,81.6,72.5,30.14,East,89,5.4,9.2,74,0.00,CLR,,0.00,WeatherDisplay:10.37,2013-07-31 14:49:00,
2013-07-31 10:54:00,81.8,73.1,30.14,ESE,115,4.2,6.9,75,0.00,CLR,,0.00,WeatherDisplay:10.37,2013-07-31 14:54:00,
2013-07-31 10:59:00,81.6,72.1,30.14,ESE,112,6.8,11.5,73,0.00,CLR,,0.00,WeatherDisplay:10.37,2013-07-31 14:59:00,
2013-07-31 11:04:00,81.4,71.9,30.14,ESE,105,5.5,9.2,73,0.00,CLR,,0.00,WeatherDisplay:10.37,2013-07-31 15:04:00,
2013-07-31 11:09:00,81.0,71.5,30.14,ESE,112,7.0,9.2,73,0.00,CLR,,0.00,WeatherDisplay:10.37,2013-07-31 15:09:00,
2013-07-31 11:15:00,80.8,71.3,30.14,East,99,4.6,10.4,73,0.00,CLR,,0.00,WeatherDisplay:10.37,2013-07-31 15:15:00,
2013-07-31 11:20:00,80.8,71.3,30.14,East,93,6.6,9.2,73,0.00,CLR,,0.00,WeatherDisplay:10.37,2013-07-31 15:20:00,
2013-07-31 11:25:00,80.9,71.1,30.14,East,97,5.0,10.0,72,0.00,CLR,,0.00,WeatherDisplay:10.37,2013-07-31 15:25:00,
2013-07-31 11:30:00,81.7,73.0,30.14,East,97,6.0,10.0,75,0.00,CLR,,0.00,WeatherDisplay:10.37,2013-07-31 15:30:00,
2013-07-31 11:35:00,82.4,72.9,30.13,East,97,6.0,10.0,73,0.00,CLR,,0.00,WeatherDisplay:10.37,2013-07-31 15:35:00,
2013-07-31 11:40:00,83.0,73.4,30.14,East,83,3.0,7.0,73,0.00,CLR,,0.00,WeatherDisplay:10.37,2013-07-31 15:40:00,
2013-07-31 11:45:00,83.7,73.3,30.14,East,82,1.0,12.0,71,0.00,CLR,,0.00,WeatherDisplay:10.37,2013-07-31 15:45:00,
2013-07-31 11:50:00,84.6,74.6,30.14,East,96,5.0,10.0,72,0.00,CLR,,0.00,WeatherDisplay:10.37,2013-07-31 15:50:00,
2013-07-31 11:55:00,85.2,74.3,30.14,East,101,4.6,8.0,70,0.00,CLR,,0.00,WeatherDisplay:10.37,2013-07-31 15:55:00,
2013-07-31 12:00:00,84.8,74.8,30.13,ENE,76,3.2,5.8,72,0.00,CLR,,0.00,WeatherDisplay:10.37,2013-07-31 16:00:00,
2013-07-31 12:05:00,84.2,74.6,30.13,NE,55,6.9,10.4,73,0.00,CLR,,0.00,WeatherDisplay:10.37,2013-07-31 16:05:00,
2013-07-31 12:11:00,83.6,74.4,30.13,ESE,109,4.6,6.9,74,0.00,CLR,,0.00,WeatherDisplay:10.37,2013-07-31 16:11:00,
2013-07-31 12:16:00,83.0,73.9,30.13,ESE,107,3.6,5.8,74,0.00,CLR,,0.00,WeatherDisplay:10.37,2013-07-31 16:16:00,
2013-07-31 12:21:00,82.5,73.8,30.13,ESE,103,1.8,7.0,75,0.00,CLR,,0.00,WeatherDisplay:10.37,2013-07-31 16:21:00,
2013-07-31 12:26:00,82.3,74.0,30.13,East,95,2.5,4.6,76,0.00,CLR,,0.00,WeatherDisplay:10.37,2013-07-31 16:26:00,
2013-07-31 12:31:00,82.4,74.5,30.13,East,94,7.0,7.0,77,0.00,CLR,,0.00,WeatherDisplay:10.37,2013-07-31 16:31:00,
2013-07-31 12:36:00,82.9,74.6,30.13,East,95,3.2,6.9,76,0.00,CLR,,0.00,WeatherDisplay:10.37,2013-07-31 16:36:00,
2013-07-31 12:41:00,83.4,75.4,30.13,NE,51,0.1,1.1,77,0.00,CLR,,0.00,WeatherDisplay:10.37,2013-07-31 16:41:00,
2013-07-31 12:47:00,83.9,75.1,30.13,ENE,60,2.9,6.9,75,0.00,CLR,,0.00,WeatherDisplay:10.37,2013-07-31 16:47:00,
2013-07-31 12:52:00,83.9,75.1,30.13,ESE,107,2.3,4.6,75,0.00,CLR,,0.00,WeatherDisplay:10.37,2013-07-31 16:52:00,
2013-07-31 12:57:00,83.7,74.9,30.13,East,96,2.7,7.0,75,0.00,CLR,,0.00,WeatherDisplay:10.37,2013-07-31 16:57:00,
2013-07-31 13:02:00,83.4,74.6,30.13,East,97,3.1,9.0,75,0.00,CLR,,0.00,WeatherDisplay:10.37,2013-07-31 17:02:00,
2013-07-31 13:07:00,83.5,73.5,30.12,East,100,5.1,8.1,72,0.00,CLR,,0.00,WeatherDisplay:10.37,2013-07-31 17:07:00,
2013-07-31 13:13:00,83.9,74.3,30.12,ESE,119,7.2,10.4,73,0.00,CLR,,0.00,WeatherDisplay:10.37,2013-07-31 17:13:00,
2013-07-31 13:18:00,83.8,74.2,30.12,SE,128,5.0,9.2,73,0.00,CLR,,0.00,WeatherDisplay:10.37,2013-07-31 17:18:00,
2013-07-31 13:23:00,83.6,74.0,30.12,East,101,4.4,7.0,73,0.00,CLR,,0.00,WeatherDisplay:10.37,2013-07-31 17:23:00,
2013-07-31 13:28:00,83.3,73.3,30.12,ESE,105,8.8,11.5,72,0.00,CLR,,0.00,WeatherDisplay:10.37,2013-07-31 17:28:00,
2013-07-31 13:33:00,83.0,73.4,30.12,ESE,118,1.8,5.8,73,0.00,CLR,,0.00,WeatherDisplay:10.37,2013-07-31 17:33:00,
2013-07-31 13:38:00,82.7,74.0,30.12,East,80,0.6,2.3,75,0.00,CLR,,0.00,WeatherDisplay:10.37,2013-07-31 17:38:00,
2013-07-31 13:43:00,82.4,73.3,30.12,East,100,4.6,5.8,74,0.00,CLR,,0.00,WeatherDisplay:10.37,2013-07-31 17:43:00,
2013-07-31 13:49:00,82.0,73.3,30.12,East,95,1.1,4.6,75,0.00,CLR,,0.00,WeatherDisplay:10.37,2013-07-31 17:49:00,
2013-07-31 13:54:00,81.6,73.3,30.12,East,90,3.4,5.8,76,0.00,CLR,,0.00,WeatherDisplay:10.37,2013-07-31 17:54:00,
2013-07-31 13:59:00,81.4,73.5,30.12,East,98,4.1,6.0,77,0.00,CLR,,0.00,WeatherDisplay:10.37,2013-07-31 17:59:00,
2013-07-31 14:04:00,81.2,73.7,30.12,East,98,3.0,3.5,78,0.00,CLR,,0.00,WeatherDisplay:10.37,2013-07-31 18:04:00,
2013-07-31 14:10:00,81.4,73.9,30.12,ESE,108,3.6,5.8,78,0.00,CLR,,0.00,WeatherDisplay:10.37,2013-07-31 18:10:00,
2013-07-31 14:15:00,82.0,74.8,30.11,ESE,107,1.4,8.1,79,0.00,CLR,,0.00,WeatherDisplay:10.37,2013-07-31 18:15:00,
2013-07-31 14:20:00,83.0,74.2,30.11,East,92,5.0,10.0,75,0.00,CLR,,0.00,WeatherDisplay:10.37,2013-07-31 18:20:00,
2013-07-31 14:25:00,83.6,72.8,30.11,East,96,7.0,10.0,70,0.00,CLR,,0.00,WeatherDisplay:10.37,2013-07-31 18:25:00,
2013-07-31 14:30:00,83.8,73.4,30.11,ESE,104,6.0,9.0,71,0.00,CLR,,0.00,WeatherDisplay:10.37,2013-07-31 18:30:00,
2013-07-31 14:35:00,84.5,74.5,30.11,East,101,6.0,9.0,72,0.00,CLR,,0.00,WeatherDisplay:10.37,2013-07-31 18:35:00,
2013-07-31 14:40:00,85.0,74.5,30.10,ESE,103,3.8,6.9,71,0.00,CLR,,0.00,WeatherDisplay:10.37,2013-07-31 18:40:00,
2013-07-31 14:45:00,85.6,74.3,30.10,East,96,6.4,9.2,69,0.00,CLR,,0.00,WeatherDisplay:10.37,2013-07-31 18:45:00,
2013-07-31 14:50:00,85.7,73.5,30.10,ENE,61,2.6,5.0,67,0.00,CLR,,0.00,WeatherDisplay:10.37,2013-07-31 18:50:00,
2013-07-31 14:55:00,85.6,73.8,30.10,SE,142,7.8,10.4,68,0.00,CLR,,0.00,WeatherDisplay:10.37,2013-07-31 18:55:00,
2013-07-31 15:01:00,85.3,72.6,30.10,ESE,104,6.4,11.5,66,0.00,CLR,,0.00,WeatherDisplay:10.37,2013-07-31 19:01:00,
2013-07-31 15:06:00,85.1,72.5,30.10,ESE,104,5.1,8.1,66,0.00,CLR,,0.00,WeatherDisplay:10.37,2013-07-31 19:06:00,
2013-07-31 15:11:00,84.7,72.5,30.10,ESE,103,1.7,3.5,67,0.00,CLR,,0.00,WeatherDisplay:10.37,2013-07-31 19:11:00,
2013-07-31 15:16:00,84.7,73.0,30.10,East,101,5.3,6.9,68,0.00,CLR,,0.00,WeatherDisplay:10.37,2013-07-31 19:16:00,
2013-07-31 15:21:00,85.2,73.4,30.10,East,95,3.9,8.0,68,0.00,CLR,,0.00,WeatherDisplay:10.37,2013-07-31 19:21:00,
2013-07-31 15:27:00,85.2,72.6,30.10,ESE,108,2.6,6.9,66,0.00,CLR,,0.00,WeatherDisplay:10.37,2013-07-31 19:27:00,
2013-07-31 15:32:00,84.7,72.5,30.09,ESE,113,3.8,6.9,67,0.00,CLR,,0.00,WeatherDisplay:10.37,2013-07-31 19:32:00,
2013-07-31 15:37:00,84.7,72.5,30.09,East,94,1.7,8.1,67,0.00,CLR,,0.00,WeatherDisplay:10.37,2013-07-31 19:37:00,
2013-07-31 15:42:00,85.2,72.6,30.09,ESE,116,5.4,9.2,66,0.00,CLR,,0.00,WeatherDisplay:10.37,2013-07-31 19:42:00,
2013-07-31 15:48:00,85.1,72.5,30.08,ESE,113,3.2,6.9,66,0.00,CLR,,0.00,WeatherDisplay:10.37,2013-07-31 19:48:00,
2013-07-31 15:53:00,84.4,72.2,30.08,East,101,6.6,10.4,67,0.00,CLR,,0.00,WeatherDisplay:10.37,2013-07-31 19:53:00,
2013-07-31 15:58:00,83.8,73.0,30.08,ENE,75,6.8,10.4,70,0.00,CLR,,0.00,WeatherDisplay:10.37,2013-07-31 19:58:00,
2013-07-31 16:03:00,83.6,72.8,30.08,East,95,4.0,6.9,70,0.00,CLR,,0.00,WeatherDisplay:10.37,2013-07-31 20:03:00,
2013-07-31 16:08:00,83.1,72.7,30.08,ESE,120,4.7,5.8,71,0.00,CLR,,0.00,WeatherDisplay:10.37,2013-07-31 20:08:00,
2013-07-31 16:13:00,82.8,72.4,30.08,ESE,123,1.0,5.8,71,0.00,CLR,,0.00,WeatherDisplay:10.37,2013-07-31 20:13:00,
2013-07-31 16:19:00,82.7,73.2,30.08,ESE,111,3.7,8.1,73,0.00,CLR,,0.00,WeatherDisplay:10.37,2013-07-31 20:19:00,
2013-07-31 16:24:00,82.5,72.1,30.08,SSE,163,2.2,3.5,71,0.00,CLR,,0.00,WeatherDisplay:10.37,2013-07-31 20:24:00,
2013-07-31 16:29:00,82.4,73.3,30.07,East,95,0.7,3.5,74,0.00,CLR,,0.00,WeatherDisplay:10.37,2013-07-31 20:29:00,
2013-07-31 16:34:00,82.4,72.9,30.07,ESE,103,5.8,8.1,73,0.00,CLR,,0.00,WeatherDisplay:10.37,2013-07-31 20:34:00,
2013-07-31 16:39:00,82.5,73.0,30.08,ESE,105,4.4,9.2,73,0.00,CLR,,0.00,WeatherDisplay:10.37,2013-07-31 20:39:00,
2013-07-31 16:44:00,82.6,72.7,30.07,ESE,112,2.2,9.2,72,0.00,CLR,,0.00,WeatherDisplay:10.37,2013-07-31 20:44:00,
2013-07-31 16:49:00,82.8,73.3,30.07,East,95,2.4,3.5,73,0.00,CLR,,0.00,WeatherDisplay:10.37,2013-07-31 20:49:00,
2013-07-31 16:54:00,82.8,72.8,30.07,SSE,147,1.3,4.6,72,0.00,CLR,,0.00,WeatherDisplay:10.37,2013-07-31 20:54:00,
2013-07-31 17:00:00,82.4,72.9,30.07,ESE,105,3.1,4.6,73,0.00,CLR,,0.00,WeatherDisplay:10.37,2013-07-31 21:00:00,
2013-07-31 17:05:00,82.1,73.0,30.07,ESE,119,2.0,7.0,74,0.00,CLR,,0.00,WeatherDisplay:10.37,2013-07-31 21:05:00,
2013-07-31 17:10:00,81.7,72.6,30.08,ESE,113,2.0,7.0,74,0.00,CLR,,0.00,WeatherDisplay:10.37,2013-07-31 21:10:00,
2013-07-31 17:15:00,81.4,72.7,30.07,ESE,115,1.0,5.0,75,0.00,CLR,,0.00,WeatherDisplay:10.37,2013-07-31 21:15:00,
2013-07-31 17:20:00,81.1,72.4,30.07,ESE,122,3.0,8.0,75,0.00,CLR,,0.00,WeatherDisplay:10.37,2013-07-31 21:20:00,
2013-07-31 17:25:00,81.0,72.7,30.07,ESE,112,1.0,7.0,76,0.00,CLR,,0.00,WeatherDisplay:10.37,2013-07-31 21:25:00,
2013-07-31 17:30:00,81.0,72.7,30.06,East,98,5.0,8.0,76,0.00,CLR,,0.00,WeatherDisplay:10.37,2013-07-31 21:30:00,
2013-07-31 17:35:00,81.0,72.3,30.06,East,98,1.0,6.0,75,0.00,CLR,,0.00,WeatherDisplay:10.37,2013-07-31 21:35:00,
2013-07-31 17:40:00,81.2,72.9,30.06,East,100,1.0,5.0,76,0.00,CLR,,0.00,WeatherDisplay:10.37,2013-07-31 21:40:00,
2013-07-31 17:45:00,81.4,72.3,30.06,East,91,3.0,9.0,74,0.00,CLR,,0.00,WeatherDisplay:10.37,2013-07-31 21:45:00,
2013-07-31 17:50:00,81.8,72.7,30.06,East,100,2.0,8.0,74,0.00,CLR,,0.00,WeatherDisplay:10.37,2013-07-31 21:50:00,
2013-07-31 17:55:00,81.8,71.9,30.06,ESE,117,3.0,9.0,72,0.00,CLR,,0.00,WeatherDisplay:10.37,2013-07-31 21:55:00,
2013-07-31 18:00:00,81.5,71.6,30.05,ESE,113,1.0,6.0,72,0.00,CLR,,0.00,WeatherDisplay:10.37,2013-07-31 22:00:00,
2013-07-31 18:05:00,81.2,71.7,30.05,ESE,114,1.0,6.0,73,0.00,CLR,,0.00,WeatherDisplay:10.37,2013-07-31 22:05:00,
2013-07-31 18:10:00,80.8,72.2,30.06,SE,137,1.0,5.0,75,0.00,CLR,,0.00,WeatherDisplay:10.37,2013-07-31 22:10:00,
2013-07-31 18:15:00,80.7,71.6,30.06,ESE,123,2.2,3.5,74,0.00,CLR,,0.00,WeatherDisplay:10.37,2013-07-31 22:15:00,
2013-07-31 18:20:00,80.8,72.5,30.05,ESE,123,0.0,1.1,76,0.00,CLR,,0.00,WeatherDisplay:10.37,2013-07-31 22:20:00,
2013-07-31 18:25:00,80.9,72.2,30.05,East,96,0.1,4.6,75,0.00,CLR,,0.00,WeatherDisplay:10.37,2013-07-31 22:25:00,
2013-07-31 18:30:00,81.0,72.7,30.05,East,96,0.2,1.1,76,0.00,CLR,,0.00,WeatherDisplay:10.37,2013-07-31 22:30:00,
2013-07-31 18:36:00,81.0,72.7,30.05,East,98,1.2,3.5,76,0.00,CLR,,0.00,WeatherDisplay:10.37,2013-07-31 22:36:00,
2013-07-31 18:41:00,81.0,72.7,30.05,ESE,106,1.9,4.6,76,0.00,CLR,,0.00,WeatherDisplay:10.37,2013-07-31 22:41:00,
2013-07-31 18:46:00,80.8,72.1,30.05,ESE,105,0.0,1.1,75,0.00,CLR,,0.00,WeatherDisplay:10.37,2013-07-31 22:46:00,
2013-07-31 18:51:00,80.5,72.2,30.05,ESE,105,0.0,1.1,76,0.00,CLR,,0.00,WeatherDisplay:10.37,2013-07-31 22:51:00,
2013-07-31 18:56:00,80.2,71.9,30.05,ESE,105,0.1,3.5,76,0.00,CLR,,0.00,WeatherDisplay:10.37,2013-07-31 22:56:00,
2013-07-31 19:02:00,80.0,72.1,30.05,ESE,105,0.5,3.5,77,0.00,CLR,,0.00,WeatherDisplay:10.37,2013-07-31 23:02:00,
2013-07-31 19:07:00,79.9,72.0,30.05,ESE,105,0.1,1.1,77,0.00,CLR,,0.00,WeatherDisplay:10.37,2013-07-31 23:07:00,
2013-07-31 19:12:00,79.6,71.4,30.05,ESE,105,0.1,1.1,76,0.00,CLR,,0.00,WeatherDisplay:10.37,2013-07-31 23:12:00,
2013-07-31 19:17:00,79.5,72.0,30.05,ESE,105,0.0,1.1,78,0.00,CLR,,0.00,WeatherDisplay:10.37,2013-07-31 23:17:00,
2013-07-31 19:22:00,79.3,71.8,30.05,ESE,105,0.0,0.0,78,0.00,CLR,,0.00,WeatherDisplay:10.37,2013-07-31 23:22:00,
2013-07-31 19:28:00,79.0,71.9,30.05,ESE,105,0.0,0.0,79,0.00,CLR,,0.00,WeatherDisplay:10.37,2013-07-31 23:28:00,
2013-07-31 19:33:00,78.7,71.6,30.05,ESE,105,0.0,0.0,79,0.00,CLR,,0.00,WeatherDisplay:10.37,2013-07-31 23:33:00,
2013-07-31 19:38:00,78.4,71.7,30.05,ESE,105,0.0,0.0,80,0.00,CLR,,0.00,WeatherDisplay:10.37,2013-07-31 23:38:00,
2013-07-31 19:44:00,78.3,71.6,30.05,ESE,105,0.0,0.0,80,0.00,CLR,,0.00,WeatherDisplay:10.37,2013-07-31 23:44:00,
2013-07-31 19:49:00,78.1,71.4,30.05,ESE,105,0.0,0.0,80,0.00,CLR,,0.00,WeatherDisplay:10.37,2013-07-31 23:49:00,
2013-07-31 19:54:00,78.0,71.7,30.06,ESE,105,0.0,0.0,81,0.00,CLR,,0.00,WeatherDisplay:10.37,2013-07-31 23:54:00,
2013-07-31 19:59:00,77.8,71.5,30.06,ESE,105,0.0,0.0,81,0.00,CLR,,0.00,WeatherDisplay:10.37,2013-07-31 23:59:00,
2013-07-31 20:04:00,77.6,71.3,30.06,ESE,105,0.0,1.1,81,0.00,CLR,,0.00,WeatherDisplay:10.37,2013-08-01 00:04:00,
2013-07-31 20:09:00,77.5,71.6,30.06,ESE,105,0.1,1.1,82,0.00,CLR,,0.00,WeatherDisplay:10.37,2013-08-01 00:09:00,
2013-07-31 20:15:00,77.4,71.1,30.06,ESE,105,0.0,1.0,81,0.00,CLR,,0.00,WeatherDisplay:10.37,2013-08-01 00:15:00,
2013-07-31 20:20:00,77.3,71.7,30.06,ESE,105,0.0,0.0,83,0.00,CLR,,0.00,WeatherDisplay:10.37,2013-08-01 00:20:00,
2013-07-31 20:25:00,77.1,71.6,30.05,ESE,105,0.0,0.0,83,0.00,CLR,,0.00,WeatherDisplay:10.37,2013-08-01 00:25:00,
2013-07-31 20:30:00,77.0,71.8,30.05,ESE,105,0.0,1.0,84,0.00,CLR,,0.00,WeatherDisplay:10.37,2013-08-01 00:30:00,
2013-07-31 20:35:00,76.7,71.1,30.06,ESE,105,0.0,0.0,83,0.00,CLR,,0.00,WeatherDisplay:10.37,2013-08-01 00:35:00,
2013-07-31 20:40:00,76.6,70.7,30.06,ESE,108,0.9,2.3,82,0.00,CLR,,0.00,WeatherDisplay:10.37,2013-08-01 00:40:00,
2013-07-31 20:45:00,76.7,70.8,30.06,SSE,161,0.9,2.3,82,0.00,CLR,,0.00,WeatherDisplay:10.37,2013-08-01 00:45:00,
2013-07-31 20:50:00,76.9,71.0,30.06,SSE,161,0.0,0.0,82,0.00,CLR,,0.00,WeatherDisplay:10.37,2013-08-01 00:50:00,
2013-07-31 20:56:00,76.9,71.0,30.07,SSE,161,0.0,1.1,82,0.00,CLR,,0.00,WeatherDisplay:10.37,2013-08-01 00:56:00,
2013-07-31 21:01:00,76.9,70.6,30.07,SSE,161,0.0,1.1,81,0.00,CLR,,0.00,WeatherDisplay:10.37,2013-08-01 01:01:00,
2013-07-31 21:06:00,77.0,70.7,30.07,SSE,161,0.0,0.0,81,0.00,CLR,,0.00,WeatherDisplay:10.37,2013-08-01 01:06:00,
2013-07-31 21:12:00,77.1,70.8,30.07,SSE,161,0.0,0.0,81,0.00,CLR,,0.00,WeatherDisplay:10.37,2013-08-01 01:12:00,
2013-07-31 21:17:00,77.1,71.2,30.07,SSE,161,0.0,1.1,82,0.00,CLR,,0.00,WeatherDisplay:10.37,2013-08-01 01:17:00,
2013-07-31 21:22:00,77.1,71.2,30.07,SSE,161,0.1,1.1,82,0.00,CLR,,0.00,WeatherDisplay:10.37,2013-08-01 01:22:00,
2013-07-31 21:27:00,77.1,71.2,30.07,SSE,161,0.0,0.0,82,0.00,CLR,,0.00,WeatherDisplay:10.37,2013-08-01 01:27:00,
2013-07-31 21:32:00,77.1,71.5,30.07,SSE,161,0.0,0.0,83,0.00,CLR,,0.00,WeatherDisplay:10.37,2013-08-01 01:32:00,
2013-07-31 21:37:00,77.1,71.5,30.07,SSE,161,0.0,1.1,83,0.00,CLR,,0.00,WeatherDisplay:10.37,2013-08-01 01:37:00,
2013-07-31 21:42:00,77.0,71.4,30.07,SSE,161,0.0,0.0,83,0.00,CLR,,0.00,WeatherDisplay:10.37,2013-08-01 01:42:00,
2013-07-31 21:47:00,77.1,71.9,30.07,SSE,161,0.0,0.0,84,0.00,CLR,,0.00,WeatherDisplay:10.37,2013-08-01 01:47:00,
2013-07-31 21:53:00,77.0,71.8,30.07,SSE,161,0.0,0.0,84,0.00,CLR,,0.00,WeatherDisplay:10.37,2013-08-01 01:53:00,
2013-07-31 21:58:00,76.9,71.7,30.06,SSE,161,0.0,0.0,84,0.00,CLR,,0.00,WeatherDisplay:10.37,2013-08-01 01:58:00,
2013-07-31 22:03:00,76.9,72.0,30.06,SSE,161,0.0,0.0,85,0.00,CLR,,0.00,WeatherDisplay:10.37,2013-08-01 02:03:00,
2013-07-31 22:08:00,76.8,71.9,30.06,SSE,161,0.0,0.0,85,0.00,CLR,,0.00,WeatherDisplay:10.37,2013-08-01 02:08:00,
2013-07-31 22:13:00,76.7,71.8,30.06,SSE,161,0.0,0.0,85,0.00,CLR,,0.00,WeatherDisplay:10.37,2013-08-01 02:13:00,
2013-07-31 22:19:00,76.7,71.8,30.06,SSE,161,0.0,0.0,85,0.00,CLR,,0.00,WeatherDisplay:10.37,2013-08-01 02:19:00,
2013-07-31 22:24:00,76.8,72.3,30.06,SSE,161,0.0,0.0,86,0.00,CLR,,0.00,WeatherDisplay:10.37,2013-08-01 02:24:00,
2013-07-31 22:29:00,76.7,72.2,30.06,SSE,161,0.0,0.0,86,0.00,CLR,,0.00,WeatherDisplay:10.37,2013-08-01 02:29:00,
2013-07-31 22:34:00,76.7,72.2,30.06,SSE,161,0.0,0.0,86,0.00,CLR,,0.00,WeatherDisplay:10.37,2013-08-01 02:34:00,
2013-07-31 22:39:00,76.7,72.2,30.06,SSE,161,0.0,0.0,86,0.00,CLR,,0.00,WeatherDisplay:10.37,2013-08-01 02:39:00,
2013-07-31 22:44:00,76.7,72.2,30.06,SSE,161,0.0,0.0,86,0.00,CLR,,0.00,WeatherDisplay:10.37,2013-08-01 02:44:00,
2013-07-31 22:49:00,76.6,72.1,30.06,SSE,161,0.0,0.0,86,0.00,CLR,,0.00,WeatherDisplay:10.37,2013-08-01 02:49:00,
2013-07-31 22:54:00,76.6,72.1,30.06,SSE,161,0.0,0.0,86,0.00,CLR,,0.00,WeatherDisplay:10.37,2013-08-01 02:54:00,
2013-07-31 23:00:00,76.5,72.0,30.06,SSE,161,0.0,0.0,86,0.00,,,0.00,WeatherDisplay:10.37,2013-08-01 03:00:00,
2013-07-31 23:05:00,76.5,72.3,30.05,SSE,161,0.0,0.0,87,0.00,,,0.00,WeatherDisplay:10.37,2013-08-01 03:05:00,
2013-07-31 23:10:00,76.5,72.6,30.05,SSE,161,0.0,0.0,88,0.00,,,0.00,WeatherDisplay:10.37,2013-08-01 03:10:00,
2013-07-31 23:15:00,76.4,72.6,30.05,SSE,161,0.0,0.0,88,0.00,,,0.00,WeatherDisplay:10.37,2013-08-01 03:15:00,
2013-07-31 23:20:00,76.4,72.6,30.05,SSE,161,0.0,0.0,88,0.00,,,0.00,WeatherDisplay:10.37,2013-08-01 03:20:00,
2013-07-31 23:25:00,76.3,72.5,30.05,SSE,161,0.0,0.0,88,0.00,,,0.00,WeatherDisplay:10.37,2013-08-01 03:25:00,
2013-07-31 23:30:00,76.3,72.5,30.05,SSE,161,0.0,0.0,88,0.00,,,0.00,WeatherDisplay:10.37,2013-08-01 03:30:00,
2013-07-31 23:35:00,76.2,72.7,30.04,SSE,161,0.0,0.0,89,0.00,CLR,,0.00,WeatherDisplay:10.37,2013-08-01 03:35:00,
2013-07-31 23:40:00,76.2,72.7,30.04,SSE,161,0.0,0.0,89,0.00,CLR,,0.00,WeatherDisplay:10.37,2013-08-01 03:40:00,
2013-07-31 23:45:00,76.1,72.3,30.04,SSE,161,0.0,0.0,88,0.00,CLR,,0.00,WeatherDisplay:10.37,2013-08-01 03:45:00,
2013-07-31 23:50:00,76.1,72.3,30.04,SSE,161,0.0,1.1,88,0.00,CLR,,0.00,WeatherDisplay:10.37,2013-08-01 03:50:00,
2013-07-31 23:55:00,76.1,72.6,30.04,SSE,161,0.0,0.0,89,0.00,CLR,,0.00,WeatherDisplay:10.37,2013-08-01 03:55:00,